Time,TemperatureF,DewpointF,PressureIn,WindDirection,WindDirectionDegrees,WindSpeedMPH,WindSpeedGustMPH,Humidity,HourlyPrecipIn,Conditions,Clouds,dailyrainin,SoftwareType,DateUTC
2013-07-22 00:00:00,76.4,74.2,30.16,ENE,59,0.0,0.0,93,0.00,,,0.00,Wunderground v.1.15,2013-07-22 04:00:00,
2013-07-22 00:05:00,76.4,74.2,30.16,ENE,59,0.0,0.0,93,0.00,,,0.00,Wunderground v.1.15,2013-07-22 04:05:00,
2013-07-22 00:10:00,76.4,74.2,30.16,ENE,59,0.0,0.0,93,0.00,,,0.00,Wunderground v.1.15,2013-07-22 04:10:00,
2013-07-22 00:15:00,76.4,74.2,30.16,ENE,59,0.0,0.0,93,0.00,,,0.00,Wunderground v.1.15,2013-07-22 04:15:00,
2013-07-22 00:20:00,76.5,74.3,30.16,ENE,59,0.0,0.0,93,0.00,,,0.00,Wunderground v.1.15,2013-07-22 04:20:00,
2013-07-22 00:25:00,76.6,74.4,30.16,ENE,59,0.0,0.0,93,0.00,,,0.00,Wunderground v.1.15,2013-07-22 04:25:00,
2013-07-22 00:30:00,76.7,74.5,30.16,ENE,59,0.0,0.0,93,0.00,,,0.00,Wunderground v.1.15,2013-07-22 04:30:00,
2013-07-22 00:35:00,76.7,74.5,30.15,ENE,59,0.0,0.0,93,0.00,,,0.00,Wunderground v.1.15,2013-07-22 04:35:00,
2013-07-22 00:40:00,76.7,74.5,30.15,ENE,59,0.0,0.0,93,0.00,,,0.00,Wunderground v.1.15,2013-07-22 04:40:00,
2013-07-22 00:45:00,76.7,74.5,30.15,ENE,59,0.0,0.0,93,0.00,,,0.00,Wunderground v.1.15,2013-07-22 04:45:00,
2013-07-22 00:50:00,76.8,74.6,30.14,ENE,59,0.0,0.0,93,0.00,,,0.00,Wunderground v.1.15,2013-07-22 04:50:00,
2013-07-22 00:55:00,76.7,74.5,30.15,ENE,59,0.0,0.0,93,0.00,,,0.00,Wunderground v.1.15,2013-07-22 04:55:00,
2013-07-22 01:00:00,76.7,74.5,30.15,ENE,59,0.0,1.0,93,0.00,,,0.00,Wunderground v.1.15,2013-07-22 05:00:00,
2013-07-22 01:10:00,76.8,74.6,30.14,ENE,59,0.0,1.0,93,0.00,,,0.00,Wunderground v.1.15,2013-07-22 05:10:00,
2013-07-22 01:15:00,76.9,74.7,30.14,ENE,59,0.0,1.0,93,0.00,,,0.00,Wunderground v.1.15,2013-07-22 05:15:00,
2013-07-22 01:20:00,76.9,74.7,30.13,ENE,59,0.0,1.0,93,0.00,,,0.00,Wunderground v.1.15,2013-07-22 05:20:00,
2013-07-22 01:25:00,76.9,74.4,30.14,ENE,59,0.0,1.0,92,0.00,,,0.00,Wunderground v.1.15,2013-07-22 05:25:00,
2013-07-22 01:35:00,77.1,74.6,30.13,ENE,59,0.0,1.0,92,0.00,,,0.00,Wunderground v.1.15,2013-07-22 05:35:00,
2013-07-22 01:40:00,77.1,74.6,30.13,ENE,59,0.0,1.0,92,0.00,,,0.00,Wunderground v.1.15,2013-07-22 05:40:00,
2013-07-22 01:45:00,77.0,74.5,30.13,ENE,59,0.0,1.0,92,0.00,,,0.00,Wunderground v.1.15,2013-07-22 05:45:00,
2013-07-22 01:50:00,77.0,74.5,30.13,ENE,59,0.0,1.0,92,0.00,,,0.00,Wunderground v.1.15,2013-07-22 05:50:00,
2013-07-22 01:55:00,76.9,74.4,30.13,ENE,59,0.0,1.0,92,0.00,,,0.00,Wunderground v.1.15,2013-07-22 05:55:00,
2013-07-22 02:00:00,76.8,74.3,30.13,ENE,59,0.0,0.0,92,0.00,,,0.00,Wunderground v.1.15,2013-07-22 06:00:00,
2013-07-22 02:10:00,76.6,74.4,30.13,ENE,59,0.0,0.0,93,0.00,,,0.00,Wunderground v.1.15,2013-07-22 06:10:00,
2013-07-22 02:15:00,76.5,74.3,30.13,ENE,59,0.0,0.0,93,0.00,,,0.00,Wunderground v.1.15,2013-07-22 06:15:00,
2013-07-22 02:20:00,76.2,74.0,30.12,ENE,59,0.0,0.0,93,0.00,,,0.00,Wunderground v.1.15,2013-07-22 06:20:00,
2013-07-22 02:25:00,76.1,74.2,30.12,ENE,59,0.0,0.0,94,0.00,,,0.00,Wunderground v.1.15,2013-07-22 06:25:00,
2013-07-22 02:30:00,76.0,74.1,30.12,ENE,59,0.0,0.0,94,0.00,,,0.00,Wunderground v.1.15,2013-07-22 06:30:00,
2013-07-22 02:35:00,76.0,74.5,30.12,ENE,59,0.0,0.0,95,0.00,,,0.00,Wunderground v.1.15,2013-07-22 06:35:00,
2013-07-22 02:45:00,76.0,74.5,30.12,ENE,59,0.0,0.0,95,0.00,,,0.00,Wunderground v.1.15,2013-07-22 06:45:00,
2013-07-22 02:50:00,76.1,74.6,30.12,ENE,59,0.0,0.0,95,0.00,,,0.00,Wunderground v.1.15,2013-07-22 06:50:00,
2013-07-22 02:55:00,76.2,74.7,30.12,ENE,59,0.0,0.0,95,0.00,,,0.00,Wunderground v.1.15,2013-07-22 06:55:00,
2013-07-22 03:00:00,76.3,74.8,30.11,ENE,59,0.0,0.0,95,0.00,,,0.00,Wunderground v.1.15,2013-07-22 07:00:00,
2013-07-22 03:10:00,76.5,75.0,30.12,ENE,59,0.0,0.0,95,0.00,,,0.00,Wunderground v.1.15,2013-07-22 07:10:00,
2013-07-22 03:20:00,76.7,74.8,30.10,ENE,59,0.0,0.0,94,0.00,,,0.00,Wunderground v.1.15,2013-07-22 07:20:00,
2013-07-22 03:25:00,76.7,74.8,30.10,ENE,59,0.0,0.0,94,0.00,,,0.00,Wunderground v.1.15,2013-07-22 07:25:00,
2013-07-22 03:30:00,76.7,74.8,30.10,ENE,59,0.0,0.0,94,0.00,,,0.00,Wunderground v.1.15,2013-07-22 07:30:00,
2013-07-22 03:35:00,76.7,74.8,30.11,ENE,59,0.0,0.0,94,0.00,,,0.00,Wunderground v.1.15,2013-07-22 07:35:00,
2013-07-22 03:40:00,76.7,75.2,30.10,ENE,59,0.0,0.0,95,0.00,,,0.00,Wunderground v.1.15,2013-07-22 07:40:00,
2013-07-22 03:50:00,76.7,75.2,30.11,ENE,59,0.0,0.0,95,0.00,,,0.00,Wunderground v.1.15,2013-07-22 07:50:00,
2013-07-22 03:55:00,76.7,75.2,30.11,ENE,59,0.0,0.0,95,0.00,,,0.00,Wunderground v.1.15,2013-07-22 07:55:00,
2013-07-22 04:00:00,76.8,75.3,30.10,ENE,59,0.0,0.0,95,0.00,,,0.00,Wunderground v.1.15,2013-07-22 08:00:00,
2013-07-22 04:10:00,76.8,75.3,30.10,ENE,59,0.0,0.0,95,0.00,,,0.00,Wunderground v.1.15,2013-07-22 08:10:00,
2013-07-22 04:15:00,76.8,75.3,30.10,ENE,59,0.0,0.0,95,0.00,,,0.00,Wunderground v.1.15,2013-07-22 08:15:00,
2013-07-22 04:25:00,76.6,75.1,30.10,ENE,59,0.0,0.0,95,0.00,,,0.00,Wunderground v.1.15,2013-07-22 08:25:00,
2013-07-22 04:30:00,76.5,75.0,30.10,ENE,59,0.0,0.0,95,0.00,,,0.00,Wunderground v.1.15,2013-07-22 08:30:00,
2013-07-22 04:35:00,76.4,74.9,30.10,ENE,59,0.0,0.0,95,0.00,,,0.00,Wunderground v.1.15,2013-07-22 08:35:00,
2013-07-22 04:45:00,76.3,75.1,30.10,ENE,59,0.0,0.0,96,0.00,,,0.00,Wunderground v.1.15,2013-07-22 08:45:00,
2013-07-22 04:50:00,76.2,75.0,30.10,ENE,59,0.0,0.0,96,0.00,,,0.00,Wunderground v.1.15,2013-07-22 08:50:00,
2013-07-22 05:00:00,76.1,74.9,30.10,ENE,59,0.0,0.0,96,0.00,,,0.00,Wunderground v.1.15,2013-07-22 09:00:00,
2013-07-22 05:10:00,76.0,74.8,30.10,ENE,59,0.0,0.0,96,0.00,,,0.00,Wunderground v.1.15,2013-07-22 09:10:00,
2013-07-22 05:15:00,76.1,74.9,30.10,ENE,59,0.0,0.0,96,0.00,,,0.00,Wunderground v.1.15,2013-07-22 09:15:00,
2013-07-22 05:20:00,76.1,74.9,30.09,ENE,59,0.0,0.0,96,0.00,,,0.00,Wunderground v.1.15,2013-07-22 09:20:00,
2013-07-22 05:30:00,76.1,74.9,30.10,ENE,59,0.0,0.0,96,0.00,,,0.00,Wunderground v.1.15,2013-07-22 09:30:00,
2013-07-22 05:40:00,76.3,75.4,30.10,ENE,59,0.0,0.0,97,0.00,,,0.00,Wunderground v.1.15,2013-07-22 09:40:00,
2013-07-22 05:45:00,76.3,75.4,30.10,ENE,59,0.0,0.0,97,0.00,,,0.00,Wunderground v.1.15,2013-07-22 09:45:00,
2013-07-22 05:50:00,76.3,75.4,30.10,ENE,59,0.0,0.0,97,0.00,,,0.00,Wunderground v.1.15,2013-07-22 09:50:00,
2013-07-22 05:55:00,76.3,75.4,30.10,ENE,59,0.0,0.0,97,0.00,,,0.00,Wunderground v.1.15,2013-07-22 09:55:00,
2013-07-22 06:00:00,76.3,75.4,30.10,ENE,59,0.0,0.0,97,0.00,,,0.00,Wunderground v.1.15,2013-07-22 10:00:00,
2013-07-22 06:10:00,76.3,75.4,30.10,ENE,59,0.0,0.0,97,0.00,,,0.00,Wunderground v.1.15,2013-07-22 10:10:00,
2013-07-22 06:15:00,76.2,75.3,30.10,ENE,59,0.0,0.0,97,0.00,,,0.00,Wunderground v.1.15,2013-07-22 10:15:00,
2013-07-22 06:20:00,76.2,75.3,30.11,ENE,59,0.0,0.0,97,0.00,,,0.00,Wunderground v.1.15,2013-07-22 10:20:00,
2013-07-22 06:25:00,76.2,75.3,30.11,ENE,59,0.0,0.0,97,0.00,,,0.00,Wunderground v.1.15,2013-07-22 10:25:00,
2013-07-22 06:35:00,76.1,75.2,30.11,ENE,59,0.0,0.0,97,0.00,,,0.00,Wunderground v.1.15,2013-07-22 10:35:00,
2013-07-22 06:40:00,76.1,75.2,30.12,ENE,59,0.0,0.0,97,0.00,,,0.00,Wunderground v.1.15,2013-07-22 10:40:00,
2013-07-22 06:45:00,75.9,75.0,30.11,ENE,59,0.0,0.0,97,0.00,,,0.00,Wunderground v.1.15,2013-07-22 10:45:00,
2013-07-22 06:50:00,75.9,75.0,30.11,ENE,59,0.0,0.0,97,0.00,,,0.00,Wunderground v.1.15,2013-07-22 10:50:00,
2013-07-22 06:55:00,75.9,75.0,30.12,ENE,59,0.0,0.0,97,0.00,,,0.00,Wunderground v.1.15,2013-07-22 10:55:00,
2013-07-22 07:00:00,75.9,75.0,30.12,ENE,59,0.0,0.0,97,0.00,,,0.00,Wunderground v.1.15,2013-07-22 11:00:00,
2013-07-22 07:10:00,75.9,75.0,30.12,ENE,59,0.0,0.0,97,0.00,,,0.00,Wunderground v.1.15,2013-07-22 11:10:00,
2013-07-22 07:15:00,75.9,75.0,30.12,ENE,59,0.0,0.0,97,0.00,,,0.00,Wunderground v.1.15,2013-07-22 11:15:00,
2013-07-22 07:25:00,75.7,74.8,30.12,ENE,59,0.0,0.0,97,0.00,,,0.00,Wunderground v.1.15,2013-07-22 11:25:00,
2013-07-22 07:35:00,75.8,74.9,30.12,ENE,59,0.0,0.0,97,0.00,,,0.00,Wunderground v.1.15,2013-07-22 11:35:00,
2013-07-22 07:40:00,76.0,75.1,30.12,ENE,59,0.0,0.0,97,0.00,,,0.00,Wunderground v.1.15,2013-07-22 11:40:00,
2013-07-22 07:45:00,76.2,75.3,30.12,ENE,59,0.0,0.0,97,0.00,,,0.00,Wunderground v.1.15,2013-07-22 11:45:00,
2013-07-22 07:50:00,76.4,75.8,30.12,ENE,59,0.0,0.0,98,0.00,,,0.00,Wunderground v.1.15,2013-07-22 11:50:00,
2013-07-22 07:55:00,76.6,75.7,30.12,ENE,59,0.0,0.0,97,0.00,,,0.00,Wunderground v.1.15,2013-07-22 11:55:00,
2013-07-22 08:00:00,76.9,76.0,30.13,ENE,59,0.0,0.0,97,0.00,,,0.00,Wunderground v.1.15,2013-07-22 12:00:00,
2013-07-22 08:10:00,77.8,76.9,30.13,ENE,59,0.0,0.0,97,0.00,,,0.00,Wunderground v.1.15,2013-07-22 12:10:00,
2013-07-22 08:20:00,78.8,77.6,30.15,ENE,59,0.0,0.0,96,0.00,,,0.00,Wunderground v.1.15,2013-07-22 12:20:00,
2013-07-22 08:25:00,79.4,77.5,30.14,ENE,59,0.0,0.0,94,0.00,,,0.00,Wunderground v.1.15,2013-07-22 12:25:00,
2013-07-22 08:30:00,79.8,77.6,30.14,ENE,59,0.0,0.0,93,0.00,,,0.00,Wunderground v.1.15,2013-07-22 12:30:00,
2013-07-22 08:35:00,80.1,77.6,30.14,ENE,59,0.0,0.0,92,0.00,,,0.00,Wunderground v.1.15,2013-07-22 12:35:00,
2013-07-22 08:40:00,80.5,77.6,30.15,ENE,59,0.0,0.0,91,0.00,,,0.00,Wunderground v.1.15,2013-07-22 12:40:00,
2013-07-22 08:50:00,81.4,77.8,30.15,ENE,59,0.0,0.0,89,0.00,,,0.00,Wunderground v.1.15,2013-07-22 12:50:00,
2013-07-22 08:55:00,81.6,77.7,30.15,ENE,59,0.0,0.0,88,0.00,,,0.00,Wunderground v.1.15,2013-07-22 12:55:00,
2013-07-22 09:00:00,82.0,77.7,30.15,ENE,59,0.0,1.0,87,0.00,,,0.00,Wunderground v.1.15,2013-07-22 13:00:00,
2013-07-22 09:10:00,82.8,77.8,30.16,ENE,59,0.0,1.0,85,0.00,,,0.00,Wunderground v.1.15,2013-07-22 13:10:00,
2013-07-22 09:15:00,83.4,78.1,30.15,ENE,59,0.0,1.0,84,0.00,,,0.00,Wunderground v.1.15,2013-07-22 13:15:00,
2013-07-22 09:25:00,83.8,78.1,30.16,ENE,59,0.0,1.0,83,0.00,,,0.00,Wunderground v.1.15,2013-07-22 13:25:00,
2013-07-22 09:30:00,84.2,77.7,30.16,ENE,59,0.0,4.0,81,0.00,,,0.00,Wunderground v.1.15,2013-07-22 13:30:00,
2013-07-22 09:35:00,84.2,77.7,30.16,ENE,59,1.0,4.0,81,0.00,,,0.00,Wunderground v.1.15,2013-07-22 13:35:00,
2013-07-22 09:40:00,83.9,77.4,30.16,East,83,1.0,1.0,81,0.00,,,0.00,Wunderground v.1.15,2013-07-22 13:40:00,
2013-07-22 09:45:00,83.9,77.4,30.16,East,86,1.0,1.0,81,0.00,,,0.00,Wunderground v.1.15,2013-07-22 13:45:00,
2013-07-22 09:55:00,84.1,77.6,30.16,East,87,0.0,1.0,81,0.00,,,0.00,Wunderground v.1.15,2013-07-22 13:55:00,
2013-07-22 10:00:00,84.7,77.5,30.16,East,90,1.0,1.0,79,0.00,,,0.00,Wunderground v.1.15,2013-07-22 14:00:00,
2013-07-22 10:10:00,85.9,77.5,30.16,East,89,1.0,2.0,76,0.00,,,0.00,Wunderground v.1.15,2013-07-22 14:10:00,
2013-07-22 10:15:00,85.9,77.1,30.16,East,93,1.0,2.0,75,0.00,,,0.00,Wunderground v.1.15,2013-07-22 14:15:00,
2013-07-22 10:20:00,86.0,77.1,30.16,East,93,1.0,1.0,75,0.00,,,0.00,Wunderground v.1.15,2013-07-22 14:20:00,
2013-07-22 10:25:00,85.9,77.1,30.16,East,96,1.0,2.0,75,0.00,,,0.00,Wunderground v.1.15,2013-07-22 14:25:00,
2013-07-22 10:30:00,86.3,77.0,30.16,East,84,2.0,2.0,74,0.00,,,0.00,Wunderground v.1.15,2013-07-22 14:30:00,
2013-07-22 10:35:00,86.2,76.9,30.16,East,84,1.0,2.0,74,0.00,,,0.00,Wunderground v.1.15,2013-07-22 14:35:00,
2013-07-22 10:40:00,86.5,77.2,30.16,East,84,1.0,1.0,74,0.00,,,0.00,Wunderground v.1.15,2013-07-22 14:40:00,
2013-07-22 10:45:00,87.2,77.5,30.16,East,84,1.0,2.0,73,0.00,,,0.00,Wunderground v.1.15,2013-07-22 14:45:00,
2013-07-22 10:50:00,87.7,77.1,30.16,East,84,1.0,1.0,71,0.00,,,0.00,Wunderground v.1.15,2013-07-22 14:50:00,
2013-07-22 11:00:00,88.6,76.7,30.16,East,84,1.0,1.0,68,0.00,,,0.00,Wunderground v.1.15,2013-07-22 15:00:00,
2013-07-22 11:10:00,89.6,76.7,30.16,East,85,0.0,1.0,66,0.00,,,0.00,Wunderground v.1.15,2013-07-22 15:10:00,
2013-07-22 11:15:00,89.6,76.7,30.16,East,85,1.0,1.0,66,0.00,,,0.00,Wunderground v.1.15,2013-07-22 15:15:00,
2013-07-22 11:20:00,89.7,76.4,30.16,East,86,1.0,1.0,65,0.00,,,0.00,Wunderground v.1.15,2013-07-22 15:20:00,
2013-07-22 11:25:00,89.7,77.3,30.16,East,88,1.0,1.0,67,0.00,,,0.00,Wunderground v.1.15,2013-07-22 15:25:00,
2013-07-22 11:35:00,89.8,76.5,30.17,East,91,1.0,1.0,65,0.00,,,0.00,Wunderground v.1.15,2013-07-22 15:35:00,
2013-07-22 11:40:00,89.5,76.6,30.16,East,90,1.0,2.0,66,0.00,,,0.00,Wunderground v.1.15,2013-07-22 15:40:00,
2013-07-22 11:45:00,89.7,77.3,30.16,East,91,0.0,2.0,67,0.00,,,0.00,Wunderground v.1.15,2013-07-22 15:45:00,
2013-07-22 11:50:00,90.0,76.6,30.16,East,90,0.0,4.0,65,0.00,,,0.00,Wunderground v.1.15,2013-07-22 15:50:00,
2013-07-22 11:55:00,89.8,76.5,30.16,East,90,1.0,4.0,65,0.00,,,0.00,Wunderground v.1.15,2013-07-22 15:55:00,
2013-07-22 12:00:00,89.8,76.0,30.16,East,90,1.0,1.0,64,0.00,,,0.00,Wunderground v.1.15,2013-07-22 16:00:00,
2013-07-22 12:10:00,89.7,76.4,30.16,East,91,0.0,5.0,65,0.00,,,0.00,Wunderground v.1.15,2013-07-22 16:10:00,
2013-07-22 12:15:00,90.2,76.8,30.15,East,91,1.0,5.0,65,0.00,,,0.00,Wunderground v.1.15,2013-07-22 16:15:00,
2013-07-22 12:20:00,90.8,76.5,30.15,East,84,1.0,6.0,63,0.00,,,0.00,Wunderground v.1.15,2013-07-22 16:20:00,
2013-07-22 12:25:00,91.1,76.3,30.15,East,86,1.0,6.0,62,0.00,,,0.00,Wunderground v.1.15,2013-07-22 16:25:00,
2013-07-22 12:30:00,91.5,76.1,30.15,East,86,1.0,1.0,61,0.00,,,0.00,Wunderground v.1.15,2013-07-22 16:30:00,
2013-07-22 12:40:00,92.0,76.1,30.15,East,89,1.0,1.0,60,0.00,,,0.00,Wunderground v.1.15,2013-07-22 16:40:00,
2013-07-22 12:45:00,92.1,75.7,30.15,East,88,1.0,5.0,59,0.00,,,0.00,Wunderground v.1.15,2013-07-22 16:45:00,
2013-07-22 12:50:00,92.5,75.6,30.15,East,88,1.0,1.0,58,0.00,,,0.00,Wunderground v.1.15,2013-07-22 16:50:00,
2013-07-22 13:00:00,93.1,76.1,30.15,East,85,1.0,1.0,58,0.00,,,0.00,Wunderground v.1.15,2013-07-22 17:00:00,
2013-07-22 13:10:00,93.3,74.7,30.15,East,84,1.0,2.0,55,0.00,,,0.00,Wunderground v.1.15,2013-07-22 17:10:00,
2013-07-22 13:15:00,92.8,74.3,30.15,East,82,2.0,2.0,55,0.00,,,0.00,Wunderground v.1.15,2013-07-22 17:15:00,
2013-07-22 13:20:00,92.6,74.6,30.14,East,82,1.0,1.0,56,0.00,,,0.00,Wunderground v.1.15,2013-07-22 17:20:00,
2013-07-22 13:25:00,93.5,75.4,30.14,East,82,1.0,2.0,56,0.00,,,0.00,Wunderground v.1.15,2013-07-22 17:25:00,
2013-07-22 13:30:00,93.8,74.6,30.14,East,89,1.0,1.0,54,0.00,,,0.00,Wunderground v.1.15,2013-07-22 17:30:00,
2013-07-22 13:35:00,93.7,75.1,30.13,East,89,0.0,2.0,55,0.00,,,0.00,Wunderground v.1.15,2013-07-22 17:35:00,
2013-07-22 13:40:00,93.8,74.6,30.13,East,85,0.0,2.0,54,0.00,,,0.00,Wunderground v.1.15,2013-07-22 17:40:00,
2013-07-22 13:50:00,93.1,74.5,30.13,East,88,2.0,2.0,55,0.00,,,0.00,Wunderground v.1.15,2013-07-22 17:50:00,
2013-07-22 13:55:00,93.8,74.1,30.13,East,84,1.0,2.0,53,0.00,,,0.00,Wunderground v.1.15,2013-07-22 17:55:00,
2013-07-22 14:00:00,94.5,74.2,30.13,East,84,1.0,1.0,52,0.00,,,0.00,Wunderground v.1.15,2013-07-22 18:00:00,
2013-07-22 14:15:00,95.7,74.1,30.12,East,86,1.0,1.0,50,0.00,,,0.00,Wunderground v.1.15,2013-07-22 18:15:00,
2013-07-22 14:40:00,96.0,73.8,30.10,ENE,78,1.0,1.0,49,0.00,,,0.00,Wunderground v.1.15,2013-07-22 18:40:00,
2013-07-22 14:45:00,96.0,73.1,30.11,East,81,1.0,1.0,48,0.00,,,0.00,Wunderground v.1.15,2013-07-22 18:45:00,
2013-07-22 15:00:00,94.6,73.1,30.10,ENE,78,2.0,2.0,50,0.00,,,0.00,Wunderground v.1.15,2013-07-22 19:00:00,
2013-07-22 15:10:00,95.3,73.7,30.10,ENE,78,0.0,4.0,50,0.00,,,0.00,Wunderground v.1.15,2013-07-22 19:10:00,
2013-07-22 15:15:00,96.1,72.6,30.10,ENE,78,0.0,4.0,47,0.00,,,0.00,Wunderground v.1.15,2013-07-22 19:15:00,
2013-07-22 15:25:00,96.9,73.3,30.10,ENE,78,1.0,6.0,47,0.00,,,0.00,Wunderground v.1.15,2013-07-22 19:25:00,
2013-07-22 15:30:00,96.3,72.2,30.09,ENE,77,2.0,4.0,46,0.00,,,0.00,Wunderground v.1.15,2013-07-22 19:30:00,
2013-07-22 15:45:00,96.0,73.1,30.09,ENE,77,0.0,1.0,48,0.00,,,0.00,Wunderground v.1.15,2013-07-22 19:45:00,
2013-07-22 15:50:00,95.9,73.7,30.08,ENE,67,1.0,1.0,49,0.00,,,0.00,Wunderground v.1.15,2013-07-22 19:50:00,
2013-07-22 15:55:00,95.8,72.3,30.08,ENE,67,2.0,2.0,47,0.00,,,0.00,Wunderground v.1.15,2013-07-22 19:55:00,
2013-07-22 16:05:00,94.6,73.1,30.09,ENE,69,1.0,2.0,50,0.00,,,0.00,Wunderground v.1.15,2013-07-22 20:05:00,
2013-07-22 16:15:00,93.1,76.1,30.09,East,87,2.0,2.0,58,0.00,,,0.00,Wunderground v.1.15,2013-07-22 20:15:00,
2013-07-22 16:20:00,90.6,76.3,30.09,SW,224,4.0,11.0,63,0.00,,,0.00,Wunderground v.1.15,2013-07-22 20:20:00,
2013-07-22 16:25:00,85.6,72.5,30.10,SW,236,7.0,11.0,65,0.00,,,0.00,Wunderground v.1.15,2013-07-22 20:25:00,
2013-07-22 16:30:00,82.9,67.6,30.09,SW,229,14.0,19.0,60,0.00,,,0.00,Wunderground v.1.15,2013-07-22 20:30:00,
2013-07-22 16:35:00,82.1,68.7,30.09,West,269,19.0,19.0,64,0.00,,,0.00,Wunderground v.1.15,2013-07-22 20:35:00,
2013-07-22 16:40:00,79.2,68.6,30.10,West,271,20.0,20.0,70,0.00,,,0.00,Wunderground v.1.15,2013-07-22 20:40:00,
2013-07-22 16:45:00,78.6,64.5,30.11,WNW,288,18.0,22.0,62,0.00,,,0.00,Wunderground v.1.15,2013-07-22 20:45:00,
2013-07-22 16:50:00,79.4,65.7,30.10,West,279,16.0,16.0,63,0.00,,,0.00,Wunderground v.1.15,2013-07-22 20:50:00,
2013-07-22 17:00:00,80.5,68.5,30.08,West,268,7.0,7.0,67,0.00,,,0.00,Wunderground v.1.15,2013-07-22 21:00:00,
2013-07-22 17:10:00,80.6,67.7,30.09,West,268,3.0,3.0,65,0.00,,,0.00,Wunderground v.1.15,2013-07-22 21:10:00,
2013-07-22 17:15:00,81.0,69.4,30.09,West,268,1.0,11.0,68,0.00,,,0.00,Wunderground v.1.15,2013-07-22 21:15:00,
2013-07-22 17:20:00,81.4,71.5,30.09,West,268,0.0,11.0,72,0.00,,,0.00,Wunderground v.1.15,2013-07-22 21:20:00,
2013-07-22 17:25:00,81.8,71.1,30.09,West,270,0.0,11.0,70,0.00,,,0.00,Wunderground v.1.15,2013-07-22 21:25:00,
2013-07-22 17:35:00,81.1,72.0,30.09,West,280,3.0,11.0,74,0.00,,,0.00,Wunderground v.1.15,2013-07-22 21:35:00,
2013-07-22 17:40:00,82.4,72.9,30.08,West,280,1.0,1.0,73,0.00,,,0.00,Wunderground v.1.15,2013-07-22 21:40:00,
2013-07-22 17:45:00,84.0,74.4,30.08,West,280,0.0,11.0,73,0.00,,,0.00,Wunderground v.1.15,2013-07-22 21:45:00,
2013-07-22 17:50:00,85.7,74.4,30.09,West,280,0.0,11.0,69,0.00,,,0.00,Wunderground v.1.15,2013-07-22 21:50:00,
2013-07-22 17:55:00,86.5,71.9,30.09,West,280,0.0,11.0,62,0.00,,,0.00,Wunderground v.1.15,2013-07-22 21:55:00,
2013-07-22 18:00:00,86.7,71.6,30.08,West,280,1.0,5.0,61,0.00,,,0.00,Wunderground v.1.15,2013-07-22 22:00:00,
2013-07-22 18:10:00,86.6,69.6,30.09,West,281,1.0,1.0,57,0.00,,,0.00,Wunderground v.1.15,2013-07-22 22:10:00,
2013-07-22 18:15:00,86.5,70.0,30.09,West,281,0.0,5.0,58,0.00,,,0.00,Wunderground v.1.15,2013-07-22 22:15:00,
2013-07-22 18:20:00,86.8,69.2,30.09,West,281,0.0,5.0,56,0.00,,,0.00,Wunderground v.1.15,2013-07-22 22:20:00,
2013-07-22 18:25:00,86.6,69.0,30.09,West,281,1.0,5.0,56,0.00,,,0.00,Wunderground v.1.15,2013-07-22 22:25:00,
2013-07-22 18:30:00,86.4,69.9,30.09,West,281,1.0,1.0,58,0.00,,,0.00,Wunderground v.1.15,2013-07-22 22:30:00,
2013-07-22 18:35:00,86.6,71.1,30.09,West,281,0.0,5.0,60,0.00,,,0.00,Wunderground v.1.15,2013-07-22 22:35:00,
2013-07-22 18:45:00,86.6,71.5,30.09,West,281,0.0,5.0,61,0.00,,,0.00,Wunderground v.1.15,2013-07-22 22:45:00,
2013-07-22 18:50:00,86.5,72.9,30.09,West,281,0.0,5.0,64,0.00,,,0.00,Wunderground v.1.15,2013-07-22 22:50:00,
2013-07-22 18:55:00,86.6,73.0,30.09,West,281,0.0,5.0,64,0.00,,,0.00,Wunderground v.1.15,2013-07-22 22:55:00,
2013-07-22 19:00:00,86.9,72.3,30.09,West,281,0.0,0.0,62,0.00,,,0.00,Wunderground v.1.15,2013-07-22 23:00:00,
2013-07-22 19:10:00,87.0,73.3,30.09,West,281,1.0,2.0,64,0.00,,,0.00,Wunderground v.1.15,2013-07-22 23:10:00,
2013-07-22 19:20:00,85.9,74.5,30.10,West,281,2.0,2.0,69,0.00,,,0.00,Wunderground v.1.15,2013-07-22 23:20:00,
2013-07-22 19:25:00,85.5,74.6,30.10,West,281,2.0,2.0,70,0.00,,,0.00,Wunderground v.1.15,2013-07-22 23:25:00,
2013-07-22 19:30:00,85.2,75.1,30.09,West,281,2.0,2.0,72,0.00,,,0.00,Wunderground v.1.15,2013-07-22 23:30:00,
2013-07-22 19:35:00,85.3,76.1,30.10,West,281,2.0,3.0,74,0.00,,,0.00,Wunderground v.1.15,2013-07-22 23:35:00,
2013-07-22 19:40:00,85.4,76.2,30.10,West,281,1.0,1.0,74,0.00,,,0.00,Wunderground v.1.15,2013-07-22 23:40:00,
2013-07-22 19:50:00,85.3,76.9,30.09,West,281,0.0,0.0,76,0.00,,,0.00,Wunderground v.1.15,2013-07-22 23:50:00,
2013-07-22 19:55:00,85.1,76.7,30.09,West,281,0.0,0.0,76,0.00,,,0.00,Wunderground v.1.15,2013-07-22 23:55:00,
2013-07-22 20:00:00,84.5,76.9,30.09,West,281,1.0,1.0,78,0.00,,,0.00,Wunderground v.1.15,2013-07-23 00:00:00,
2013-07-22 20:10:00,84.1,77.3,30.09,West,281,0.0,5.0,80,0.00,,,0.00,Wunderground v.1.15,2013-07-23 00:10:00,
2013-07-22 20:15:00,83.7,76.9,30.10,West,281,0.0,5.0,80,0.00,,,0.00,Wunderground v.1.15,2013-07-23 00:15:00,
2013-07-22 20:25:00,83.1,77.0,30.10,West,281,2.0,2.0,82,0.00,,,0.00,Wunderground v.1.15,2013-07-23 00:25:00,
2013-07-22 20:30:00,82.7,77.0,30.10,West,280,3.0,5.0,83,0.00,,,0.00,Wunderground v.1.15,2013-07-23 00:30:00,
2013-07-22 20:35:00,82.6,76.9,30.10,West,281,3.0,5.0,83,0.00,,,0.00,Wunderground v.1.15,2013-07-23 00:35:00,
2013-07-22 20:40:00,82.7,77.4,30.11,West,280,2.0,2.0,84,0.00,,,0.00,Wunderground v.1.15,2013-07-23 00:40:00,
2013-07-22 20:45:00,82.7,77.4,30.11,West,280,1.0,5.0,84,0.00,,,0.00,Wunderground v.1.15,2013-07-23 00:45:00,
2013-07-22 20:50:00,82.6,76.9,30.11,West,280,0.0,5.0,83,0.00,,,0.00,Wunderground v.1.15,2013-07-23 00:50:00,
2013-07-22 21:00:00,82.6,77.6,30.10,West,280,0.0,0.0,85,0.00,,,0.00,Wunderground v.1.15,2013-07-23 01:00:00,
2013-07-22 21:10:00,82.2,76.9,30.11,West,280,0.0,0.0,84,0.00,,,0.00,Wunderground v.1.15,2013-07-23 01:10:00,
2013-07-22 21:15:00,82.0,77.0,30.11,West,280,0.0,0.0,85,0.00,,,0.00,Wunderground v.1.15,2013-07-23 01:15:00,
2013-07-22 21:25:00,81.9,77.3,30.11,West,280,0.0,0.0,86,0.00,,,0.00,Wunderground v.1.15,2013-07-23 01:25:00,
2013-07-22 21:30:00,81.9,77.3,30.11,West,280,0.0,0.0,86,0.00,,,0.00,Wunderground v.1.15,2013-07-23 01:30:00,
2013-07-22 21:35:00,81.9,77.3,30.11,West,280,0.0,0.0,86,0.00,,,0.00,Wunderground v.1.15,2013-07-23 01:35:00,
2013-07-22 21:45:00,81.6,77.0,30.11,West,281,0.0,0.0,86,0.00,,,0.00,Wunderground v.1.15,2013-07-23 01:45:00,
2013-07-22 21:50:00,81.5,77.3,30.11,West,280,0.0,0.0,87,0.00,,,0.00,Wunderground v.1.15,2013-07-23 01:50:00,
2013-07-22 21:55:00,81.5,77.3,30.11,West,280,0.0,0.0,87,0.00,,,0.00,Wunderground v.1.15,2013-07-23 01:55:00,
2013-07-22 22:00:00,81.4,77.2,30.11,West,280,0.0,0.0,87,0.00,,,0.00,Wunderground v.1.15,2013-07-23 02:00:00,
2013-07-22 22:10:00,81.0,77.1,30.11,West,280,0.0,2.0,88,0.00,,,0.00,Wunderground v.1.15,2013-07-23 02:10:00,
2013-07-22 22:20:00,80.9,77.0,30.11,West,280,0.0,0.0,88,0.00,,,0.00,Wunderground v.1.15,2013-07-23 02:20:00,
2013-07-22 22:25:00,80.9,77.0,30.11,West,280,0.0,0.0,88,0.00,,,0.00,Wunderground v.1.15,2013-07-23 02:25:00,
2013-07-22 22:30:00,80.9,77.4,30.11,West,281,0.0,0.0,89,0.00,,,0.00,Wunderground v.1.15,2013-07-23 02:30:00,
2013-07-22 22:35:00,80.8,77.3,30.11,West,280,0.0,0.0,89,0.00,,,0.00,Wunderground v.1.15,2013-07-23 02:35:00,
2013-07-22 22:40:00,80.8,76.9,30.11,West,280,0.0,0.0,88,0.00,,,0.00,Wunderground v.1.15,2013-07-23 02:40:00,
2013-07-22 22:50:00,80.7,77.2,30.11,West,280,0.0,0.0,89,0.00,,,0.00,Wunderground v.1.15,2013-07-23 02:50:00,
2013-07-22 22:55:00,80.6,77.1,30.11,West,280,0.0,0.0,89,0.00,,,0.00,Wunderground v.1.15,2013-07-23 02:55:00,
2013-07-22 23:00:00,80.7,77.2,30.11,West,281,0.0,0.0,89,0.00,,,0.00,Wunderground v.1.15,2013-07-23 03:00:00,
2013-07-22 23:10:00,80.7,77.2,30.11,West,280,0.0,0.0,89,0.00,,,0.00,Wunderground v.1.15,2013-07-23 03:10:00,
2013-07-22 23:15:00,80.7,77.2,30.12,West,280,0.0,0.0,89,0.00,,,0.00,Wunderground v.1.15,2013-07-23 03:15:00,
2013-07-22 23:20:00,80.6,77.4,30.12,West,281,0.0,0.0,90,0.00,,,0.00,Wunderground v.1.15,2013-07-23 03:20:00,
2013-07-22 23:25:00,80.6,77.4,30.13,West,280,0.0,0.0,90,0.00,,,0.00,Wunderground v.1.15,2013-07-23 03:25:00,
2013-07-22 23:30:00,80.4,77.5,30.13,West,280,0.0,0.0,91,0.00,,,0.00,Wunderground v.1.15,2013-07-23 03:30:00,
2013-07-22 23:35:00,80.3,77.4,30.12,West,281,0.0,0.0,91,0.00,,,0.00,Wunderground v.1.15,2013-07-23 03:35:00,
2013-07-22 23:45:00,79.8,77.3,30.13,West,281,0.0,0.0,92,0.00,,,0.00,Wunderground v.1.15,2013-07-23 03:45:00,
2013-07-22 23:50:00,79.6,77.1,30.13,West,281,0.0,0.0,92,0.00,,,0.00,Wunderground v.1.15,2013-07-23 03:50:00,
2013-07-22 23:55:00,79.4,76.9,30.13,West,281,0.0,0.0,92,0.00,,,0.00,Wunderground v.1.15,2013-07-23 03:55:00,